sensor_id;sensor_type;location;lat;lon;timestamp;temperature;humidity
27226;DHT22;14732;51.074;3.788;2022-08-19T00:00:46;20.80;99.90
27226;DHT22;14732;51.074;3.788;2022-08-19T00:03:11;20.80;99.90
27226;DHT22;14732;51.074;3.788;2022-08-19T00:05:37;20.80;99.90
27226;DHT22;14732;51.074;3.788;2022-08-19T00:08:03;20.70;99.90
27226;DHT22;14732;51.074;3.788;2022-08-19T00:10:29;20.80;99.90
27226;DHT22;14732;51.074;3.788;2022-08-19T00:12:54;20.60;99.90
27226;DHT22;14732;51.074;3.788;2022-08-19T00:15:21;20.60;99.90
27226;DHT22;14732;51.074;3.788;2022-08-19T00:17:48;20.50;99.90
27226;DHT22;14732;51.074;3.788;2022-08-19T00:20:18;20.50;99.90
27226;DHT22;14732;51.074;3.788;2022-08-19T00:22:45;20.40;99.90
27226;DHT22;14732;51.074;3.788;2022-08-19T00:25:13;20.40;99.90
27226;DHT22;14732;51.074;3.788;2022-08-19T00:27:39;20.50;99.90
27226;DHT22;14732;51.074;3.788;2022-08-19T00:30:06;20.40;99.90
27226;DHT22;14732;51.074;3.788;2022-08-19T00:32:32;20.40;99.90
27226;DHT22;14732;51.074;3.788;2022-08-19T00:34:59;20.40;99.90
27226;DHT22;14732;51.074;3.788;2022-08-19T00:37:25;20.40;99.90
27226;DHT22;14732;51.074;3.788;2022-08-19T00:39:52;20.40;99.90
27226;DHT22;14732;51.074;3.788;2022-08-19T00:42:19;20.40;99.90
27226;DHT22;14732;51.074;3.788;2022-08-19T00:44:45;20.40;99.90
27226;DHT22;14732;51.074;3.788;2022-08-19T00:47:11;20.30;99.90
27226;DHT22;14732;51.074;3.788;2022-08-19T00:49:48;20.20;99.90
27226;DHT22;14732;51.074;3.788;2022-08-19T00:52:37;20.20;99.90
27226;DHT22;14732;51.074;3.788;2022-08-19T00:55:07;20.20;99.90
27226;DHT22;14732;51.074;3.788;2022-08-19T00:57:39;20.20;99.90
27226;DHT22;14732;51.074;3.788;2022-08-19T01:00:09;20.30;99.90
27226;DHT22;14732;51.074;3.788;2022-08-19T01:02:37;20.10;99.90
27226;DHT22;14732;51.074;3.788;2022-08-19T01:05:08;20.10;99.90
27226;DHT22;14732;51.074;3.788;2022-08-19T01:07:35;20.10;99.90
27226;DHT22;14732;51.074;3.788;2022-08-19T01:10:03;20.00;99.90
27226;DHT22;14732;51.074;3.788;2022-08-19T01:12:29;20.00;99.90
27226;DHT22;14732;51.074;3.788;2022-08-19T01:14:55;20.00;99.90
27226;DHT22;14732;51.074;3.788;2022-08-19T01:17:21;20.00;99.90
27226;DHT22;14732;51.074;3.788;2022-08-19T01:19:48;20.10;99.90
27226;DHT22;14732;51.074;3.788;2022-08-19T01:24:45;20.00;99.90
27226;DHT22;14732;51.074;3.788;2022-08-19T01:27:11;20.00;99.90
27226;DHT22;14732;51.074;3.788;2022-08-19T01:29:39;19.90;99.90
27226;DHT22;14732;51.074;3.788;2022-08-19T01:32:07;20.00;99.90
27226;DHT22;14732;51.074;3.788;2022-08-19T01:34:32;19.90;99.90
27226;DHT22;14732;51.074;3.788;2022-08-19T01:37:00;19.80;99.90
27226;DHT22;14732;51.074;3.788;2022-08-19T01:39:27;19.80;99.90
27226;DHT22;14732;51.074;3.788;2022-08-19T01:41:53;19.60;99.90
27226;DHT22;14732;51.074;3.788;2022-08-19T01:44:22;19.60;99.90
27226;DHT22;14732;51.074;3.788;2022-08-19T01:46:50;19.60;99.90
27226;DHT22;14732;51.074;3.788;2022-08-19T01:49:19;19.70;99.90
27226;DHT22;14732;51.074;3.788;2022-08-19T01:51:46;19.60;99.90
27226;DHT22;14732;51.074;3.788;2022-08-19T01:54:14;19.60;99.90
27226;DHT22;14732;51.074;3.788;2022-08-19T01:56:40;19.70;99.90
27226;DHT22;14732;51.074;3.788;2022-08-19T01:59:19;19.70;99.90
27226;DHT22;14732;51.074;3.788;2022-08-19T02:01:45;19.70;99.90
27226;DHT22;14732;51.074;3.788;2022-08-19T02:04:11;19.60;99.90
27226;DHT22;14732;51.074;3.788;2022-08-19T02:06:37;19.60;99.90
27226;DHT22;14732;51.074;3.788;2022-08-19T02:09:06;19.60;99.90
27226;DHT22;14732;51.074;3.788;2022-08-19T02:11:35;19.70;99.90
27226;DHT22;14732;51.074;3.788;2022-08-19T02:14:05;19.70;99.90
27226;DHT22;14732;51.074;3.788;2022-08-19T02:16:30;19.60;99.90
27226;DHT22;14732;51.074;3.788;2022-08-19T02:18:56;19.60;99.90
27226;DHT22;14732;51.074;3.788;2022-08-19T02:21:26;19.50;99.90
27226;DHT22;14732;51.074;3.788;2022-08-19T02:23:52;19.50;99.90
27226;DHT22;14732;51.074;3.788;2022-08-19T02:26:17;19.50;99.90
27226;DHT22;14732;51.074;3.788;2022-08-19T02:28:44;19.50;99.90
27226;DHT22;14732;51.074;3.788;2022-08-19T02:31:18;19.50;99.90
27226;DHT22;14732;51.074;3.788;2022-08-19T02:33:45;19.50;99.90
27226;DHT22;14732;51.074;3.788;2022-08-19T02:36:13;19.40;99.90
27226;DHT22;14732;51.074;3.788;2022-08-19T02:38:39;19.30;99.90
27226;DHT22;14732;51.074;3.788;2022-08-19T02:41:17;19.30;99.90
27226;DHT22;14732;51.074;3.788;2022-08-19T02:43:43;19.30;99.90
27226;DHT22;14732;51.074;3.788;2022-08-19T02:46:23;19.30;99.90
27226;DHT22;14732;51.074;3.788;2022-08-19T02:48:51;19.30;99.90
27226;DHT22;14732;51.074;3.788;2022-08-19T02:51:18;19.20;99.90
27226;DHT22;14732;51.074;3.788;2022-08-19T02:53:44;19.30;99.90
27226;DHT22;14732;51.074;3.788;2022-08-19T02:56:10;19.30;99.90
27226;DHT22;14732;51.074;3.788;2022-08-19T02:58:36;19.30;99.90
27226;DHT22;14732;51.074;3.788;2022-08-19T03:01:02;19.30;99.90
27226;DHT22;14732;51.074;3.788;2022-08-19T03:03:27;19.40;99.90
27226;DHT22;14732;51.074;3.788;2022-08-19T03:06:04;19.30;99.90
27226;DHT22;14732;51.074;3.788;2022-08-19T03:08:30;19.30;99.90
27226;DHT22;14732;51.074;3.788;2022-08-19T03:10:55;19.30;99.90
27226;DHT22;14732;51.074;3.788;2022-08-19T03:13:21;19.20;99.90
27226;DHT22;14732;51.074;3.788;2022-08-19T03:15:47;19.20;99.90
27226;DHT22;14732;51.074;3.788;2022-08-19T03:18:13;19.30;99.90
27226;DHT22;14732;51.074;3.788;2022-08-19T03:20:48;19.30;99.90
27226;DHT22;14732;51.074;3.788;2022-08-19T03:23:14;19.30;99.90
27226;DHT22;14732;51.074;3.788;2022-08-19T03:25:43;19.40;99.90
27226;DHT22;14732;51.074;3.788;2022-08-19T03:28:14;19.30;99.90
27226;DHT22;14732;51.074;3.788;2022-08-19T03:30:41;19.30;99.90
27226;DHT22;14732;51.074;3.788;2022-08-19T03:33:08;19.20;99.90
27226;DHT22;14732;51.074;3.788;2022-08-19T03:35:34;19.10;99.90
27226;DHT22;14732;51.074;3.788;2022-08-19T03:38:05;19.10;99.90
27226;DHT22;14732;51.074;3.788;2022-08-19T03:40:32;19.10;99.90
27226;DHT22;14732;51.074;3.788;2022-08-19T03:43:00;19.10;99.90
27226;DHT22;14732;51.074;3.788;2022-08-19T03:45:26;19.10;99.90
27226;DHT22;14732;51.074;3.788;2022-08-19T03:47:53;19.10;99.90
27226;DHT22;14732;51.074;3.788;2022-08-19T03:50:19;19.10;99.90
27226;DHT22;14732;51.074;3.788;2022-08-19T03:52:49;19.10;99.90
27226;DHT22;14732;51.074;3.788;2022-08-19T03:55:16;19.10;99.90
27226;DHT22;14732;51.074;3.788;2022-08-19T03:57:41;19.10;99.90
27226;DHT22;14732;51.074;3.788;2022-08-19T04:00:08;19.10;99.90
27226;DHT22;14732;51.074;3.788;2022-08-19T04:02:34;19.10;99.90
27226;DHT22;14732;51.074;3.788;2022-08-19T04:05:00;19.10;99.90
27226;DHT22;14732;51.074;3.788;2022-08-19T04:07:25;18.90;99.90
27226;DHT22;14732;51.074;3.788;2022-08-19T04:09:51;18.90;99.90
27226;DHT22;14732;51.074;3.788;2022-08-19T04:12:18;18.80;99.90
27226;DHT22;14732;51.074;3.788;2022-08-19T04:14:45;18.80;99.90
27226;DHT22;14732;51.074;3.788;2022-08-19T04:17:11;18.70;99.90
27226;DHT22;14732;51.074;3.788;2022-08-19T04:19:38;18.70;99.90
27226;DHT22;14732;51.074;3.788;2022-08-19T04:22:04;18.80;99.90
27226;DHT22;14732;51.074;3.788;2022-08-19T04:24:30;18.70;99.90
27226;DHT22;14732;51.074;3.788;2022-08-19T04:26:56;18.80;99.90
27226;DHT22;14732;51.074;3.788;2022-08-19T04:29:23;18.70;99.90
27226;DHT22;14732;51.074;3.788;2022-08-19T04:31:51;18.70;99.90
27226;DHT22;14732;51.074;3.788;2022-08-19T04:34:20;18.70;99.90
27226;DHT22;14732;51.074;3.788;2022-08-19T04:36:50;18.70;99.90
27226;DHT22;14732;51.074;3.788;2022-08-19T04:39:19;18.70;99.90
27226;DHT22;14732;51.074;3.788;2022-08-19T04:41:45;18.80;99.90
27226;DHT22;14732;51.074;3.788;2022-08-19T04:44:34;18.90;99.90
27226;DHT22;14732;51.074;3.788;2022-08-19T04:47:01;18.90;99.90
27226;DHT22;14732;51.074;3.788;2022-08-19T04:49:27;18.80;99.90
27226;DHT22;14732;51.074;3.788;2022-08-19T04:51:54;18.90;99.90
27226;DHT22;14732;51.074;3.788;2022-08-19T04:54:22;18.90;99.90
27226;DHT22;14732;51.074;3.788;2022-08-19T04:56:49;18.90;99.90
27226;DHT22;14732;51.074;3.788;2022-08-19T04:59:16;18.90;99.90
27226;DHT22;14732;51.074;3.788;2022-08-19T05:01:42;18.90;99.90
27226;DHT22;14732;51.074;3.788;2022-08-19T05:04:08;18.90;99.90
27226;DHT22;14732;51.074;3.788;2022-08-19T05:06:35;19.00;99.90
27226;DHT22;14732;51.074;3.788;2022-08-19T05:09:04;18.90;99.90
27226;DHT22;14732;51.074;3.788;2022-08-19T05:11:34;19.00;99.90
27226;DHT22;14732;51.074;3.788;2022-08-19T05:14:00;19.10;99.90
27226;DHT22;14732;51.074;3.788;2022-08-19T05:16:26;19.10;99.90
27226;DHT22;14732;51.074;3.788;2022-08-19T05:18:53;19.20;99.90
27226;DHT22;14732;51.074;3.788;2022-08-19T05:21:40;19.20;99.90
27226;DHT22;14732;51.074;3.788;2022-08-19T05:24:24;19.20;99.90
27226;DHT22;14732;51.074;3.788;2022-08-19T05:26:51;19.30;99.90
27226;DHT22;14732;51.074;3.788;2022-08-19T05:29:19;19.40;99.90
27226;DHT22;14732;51.074;3.788;2022-08-19T05:31:46;19.60;99.90
27226;DHT22;14732;51.074;3.788;2022-08-19T05:34:15;19.70;99.90
27226;DHT22;14732;51.074;3.788;2022-08-19T05:36:42;19.80;99.90
27226;DHT22;14732;51.074;3.788;2022-08-19T05:39:14;20.00;99.90
27226;DHT22;14732;51.074;3.788;2022-08-19T05:41:51;20.10;99.90
27226;DHT22;14732;51.074;3.788;2022-08-19T05:44:18;20.10;99.90
27226;DHT22;14732;51.074;3.788;2022-08-19T05:46:45;20.20;99.90
27226;DHT22;14732;51.074;3.788;2022-08-19T05:49:13;20.30;99.90
27226;DHT22;14732;51.074;3.788;2022-08-19T05:51:38;20.50;99.90
27226;DHT22;14732;51.074;3.788;2022-08-19T05:54:05;20.70;99.90
27226;DHT22;14732;51.074;3.788;2022-08-19T05:56:33;20.70;99.90
27226;DHT22;14732;51.074;3.788;2022-08-19T05:59:02;20.50;99.90
27226;DHT22;14732;51.074;3.788;2022-08-19T06:01:28;20.60;99.90
27226;DHT22;14732;51.074;3.788;2022-08-19T06:03:53;20.60;99.90
27226;DHT22;14732;51.074;3.788;2022-08-19T06:06:19;20.70;99.90
27226;DHT22;14732;51.074;3.788;2022-08-19T06:08:46;20.60;99.90
27226;DHT22;14732;51.074;3.788;2022-08-19T06:11:35;20.50;99.90
27226;DHT22;14732;51.074;3.788;2022-08-19T06:14:06;20.60;99.90
27226;DHT22;14732;51.074;3.788;2022-08-19T06:16:38;20.70;99.90
27226;DHT22;14732;51.074;3.788;2022-08-19T06:19:10;20.70;99.90
27226;DHT22;14732;51.074;3.788;2022-08-19T06:21:39;20.70;99.90
27226;DHT22;14732;51.074;3.788;2022-08-19T06:24:06;20.70;99.90
27226;DHT22;14732;51.074;3.788;2022-08-19T06:26:34;20.80;99.90
27226;DHT22;14732;51.074;3.788;2022-08-19T06:29:00;20.80;99.90
27226;DHT22;14732;51.074;3.788;2022-08-19T06:31:30;20.90;99.90
27226;DHT22;14732;51.074;3.788;2022-08-19T06:33:59;21.10;99.90
27226;DHT22;14732;51.074;3.788;2022-08-19T06:36:27;20.90;99.90
27226;DHT22;14732;51.074;3.788;2022-08-19T06:38:57;21.10;99.90
27226;DHT22;14732;51.074;3.788;2022-08-19T06:41:24;21.30;99.90
27226;DHT22;14732;51.074;3.788;2022-08-19T06:43:50;21.30;99.90
27226;DHT22;14732;51.074;3.788;2022-08-19T06:46:17;21.40;99.90
27226;DHT22;14732;51.074;3.788;2022-08-19T06:48:44;21.50;99.90
27226;DHT22;14732;51.074;3.788;2022-08-19T06:51:10;21.80;99.90
27226;DHT22;14732;51.074;3.788;2022-08-19T06:53:35;22.20;99.90
27226;DHT22;14732;51.074;3.788;2022-08-19T06:56:01;22.20;99.90
27226;DHT22;14732;51.074;3.788;2022-08-19T06:58:31;22.40;99.90
27226;DHT22;14732;51.074;3.788;2022-08-19T07:01:02;22.30;99.90
27226;DHT22;14732;51.074;3.788;2022-08-19T07:03:32;22.20;99.90
27226;DHT22;14732;51.074;3.788;2022-08-19T07:06:07;22.20;99.90
27226;DHT22;14732;51.074;3.788;2022-08-19T07:08:34;22.20;99.90
27226;DHT22;14732;51.074;3.788;2022-08-19T07:11:05;22.10;99.90
27226;DHT22;14732;51.074;3.788;2022-08-19T07:13:32;22.00;99.90
27226;DHT22;14732;51.074;3.788;2022-08-19T07:16:10;22.10;99.90
27226;DHT22;14732;51.074;3.788;2022-08-19T07:18:37;22.30;99.90
27226;DHT22;14732;51.074;3.788;2022-08-19T07:21:12;22.20;99.90
27226;DHT22;14732;51.074;3.788;2022-08-19T07:23:38;22.00;99.90
27226;DHT22;14732;51.074;3.788;2022-08-19T07:26:10;22.00;99.90
27226;DHT22;14732;51.074;3.788;2022-08-19T07:28:36;21.90;99.90
27226;DHT22;14732;51.074;3.788;2022-08-19T07:31:10;21.90;99.90
27226;DHT22;14732;51.074;3.788;2022-08-19T07:33:35;22.00;99.90
27226;DHT22;14732;51.074;3.788;2022-08-19T07:36:03;22.10;99.90
27226;DHT22;14732;51.074;3.788;2022-08-19T07:38:30;22.10;99.90
27226;DHT22;14732;51.074;3.788;2022-08-19T07:40:56;22.40;99.90
27226;DHT22;14732;51.074;3.788;2022-08-19T07:43:21;22.20;99.90
27226;DHT22;14732;51.074;3.788;2022-08-19T07:45:51;22.20;99.90
27226;DHT22;14732;51.074;3.788;2022-08-19T07:48:18;21.90;99.90
27226;DHT22;14732;51.074;3.788;2022-08-19T07:50:44;22.00;99.90
27226;DHT22;14732;51.074;3.788;2022-08-19T07:53:10;22.00;99.90
27226;DHT22;14732;51.074;3.788;2022-08-19T07:55:37;22.10;99.90
27226;DHT22;14732;51.074;3.788;2022-08-19T07:58:03;22.30;99.90
27226;DHT22;14732;51.074;3.788;2022-08-19T08:00:30;22.30;99.90
27226;DHT22;14732;51.074;3.788;2022-08-19T08:02:56;22.50;99.90
27226;DHT22;14732;51.074;3.788;2022-08-19T08:05:23;22.40;99.90
27226;DHT22;14732;51.074;3.788;2022-08-19T08:08:07;22.30;99.90
27226;DHT22;14732;51.074;3.788;2022-08-19T08:10:51;22.30;99.90
27226;DHT22;14732;51.074;3.788;2022-08-19T08:13:16;22.50;99.90
27226;DHT22;14732;51.074;3.788;2022-08-19T08:15:42;22.60;99.90
27226;DHT22;14732;51.074;3.788;2022-08-19T08:18:10;22.60;99.90
27226;DHT22;14732;51.074;3.788;2022-08-19T08:20:36;22.50;99.90
27226;DHT22;14732;51.074;3.788;2022-08-19T08:23:02;22.70;99.90
27226;DHT22;14732;51.074;3.788;2022-08-19T08:25:46;22.60;99.90
27226;DHT22;14732;51.074;3.788;2022-08-19T08:28:13;22.40;99.90
27226;DHT22;14732;51.074;3.788;2022-08-19T08:30:39;22.40;99.90
27226;DHT22;14732;51.074;3.788;2022-08-19T08:33:07;22.50;99.90
27226;DHT22;14732;51.074;3.788;2022-08-19T08:35:33;22.30;99.90
27226;DHT22;14732;51.074;3.788;2022-08-19T08:37:59;22.10;99.90
27226;DHT22;14732;51.074;3.788;2022-08-19T08:40:58;22.20;99.90
27226;DHT22;14732;51.074;3.788;2022-08-19T08:43:39;22.50;99.90
27226;DHT22;14732;51.074;3.788;2022-08-19T08:46:23;22.70;99.90
27226;DHT22;14732;51.074;3.788;2022-08-19T08:51:51;22.50;99.90
27226;DHT22;14732;51.074;3.788;2022-08-19T08:54:20;22.30;99.90
27226;DHT22;14732;51.074;3.788;2022-08-19T08:56:51;22.50;99.90
27226;DHT22;14732;51.074;3.788;2022-08-19T08:59:29;22.50;99.90
27226;DHT22;14732;51.074;3.788;2022-08-19T09:01:59;22.80;99.90
27226;DHT22;14732;51.074;3.788;2022-08-19T09:04:25;23.10;99.90
27226;DHT22;14732;51.074;3.788;2022-08-19T09:09:25;23.30;99.90
27226;DHT22;14732;51.074;3.788;2022-08-19T09:14:58;23.30;99.90
27226;DHT22;14732;51.074;3.788;2022-08-19T09:17:26;23.40;99.90
27226;DHT22;14732;51.074;3.788;2022-08-19T09:20:23;23.40;99.90
27226;DHT22;14732;51.074;3.788;2022-08-19T09:22:49;23.30;99.90
27226;DHT22;14732;51.074;3.788;2022-08-19T09:25:18;23.40;99.90
27226;DHT22;14732;51.074;3.788;2022-08-19T09:27:47;23.40;99.90
27226;DHT22;14732;51.074;3.788;2022-08-19T09:30:19;23.30;99.90
27226;DHT22;14732;51.074;3.788;2022-08-19T09:32:47;23.40;99.90
27226;DHT22;14732;51.074;3.788;2022-08-19T09:35:14;23.40;99.90
27226;DHT22;14732;51.074;3.788;2022-08-19T09:37:41;23.70;99.90
27226;DHT22;14732;51.074;3.788;2022-08-19T09:40:08;24.00;99.90
27226;DHT22;14732;51.074;3.788;2022-08-19T09:42:34;24.50;99.90
27226;DHT22;14732;51.074;3.788;2022-08-19T09:45:00;24.70;99.90
27226;DHT22;14732;51.074;3.788;2022-08-19T09:47:26;25.10;99.90
27226;DHT22;14732;51.074;3.788;2022-08-19T09:49:52;25.20;99.90
27226;DHT22;14732;51.074;3.788;2022-08-19T09:52:17;25.40;99.90
27226;DHT22;14732;51.074;3.788;2022-08-19T09:54:43;25.50;99.90
27226;DHT22;14732;51.074;3.788;2022-08-19T09:57:09;25.60;99.90
27226;DHT22;14732;51.074;3.788;2022-08-19T09:59:35;25.50;99.90
27226;DHT22;14732;51.074;3.788;2022-08-19T10:02:02;25.50;99.90
27226;DHT22;14732;51.074;3.788;2022-08-19T10:04:28;25.50;99.90
27226;DHT22;14732;51.074;3.788;2022-08-19T10:07:13;25.50;99.90
27226;DHT22;14732;51.074;3.788;2022-08-19T10:09:39;25.40;99.90
27226;DHT22;14732;51.074;3.788;2022-08-19T10:12:06;25.40;99.90
27226;DHT22;14732;51.074;3.788;2022-08-19T10:14:32;25.20;99.90
27226;DHT22;14732;51.074;3.788;2022-08-19T10:16:58;25.00;99.90
27226;DHT22;14732;51.074;3.788;2022-08-19T10:19:26;24.90;99.90
27226;DHT22;14732;51.074;3.788;2022-08-19T10:21:57;24.80;99.90
27226;DHT22;14732;51.074;3.788;2022-08-19T10:24:23;24.70;99.90
27226;DHT22;14732;51.074;3.788;2022-08-19T10:26:49;24.90;99.90
27226;DHT22;14732;51.074;3.788;2022-08-19T10:29:15;24.90;99.90
27226;DHT22;14732;51.074;3.788;2022-08-19T10:31:41;24.80;99.90
27226;DHT22;14732;51.074;3.788;2022-08-19T10:34:07;24.80;99.90
27226;DHT22;14732;51.074;3.788;2022-08-19T10:36:35;24.70;99.90
27226;DHT22;14732;51.074;3.788;2022-08-19T10:39:04;24.80;99.90
27226;DHT22;14732;51.074;3.788;2022-08-19T10:41:33;24.90;99.90
27226;DHT22;14732;51.074;3.788;2022-08-19T10:44:04;24.90;99.90
27226;DHT22;14732;51.074;3.788;2022-08-19T10:46:32;25.20;99.90
27226;DHT22;14732;51.074;3.788;2022-08-19T10:48:59;25.50;99.90
27226;DHT22;14732;51.074;3.788;2022-08-19T10:51:25;25.80;99.90
27226;DHT22;14732;51.074;3.788;2022-08-19T10:54:27;25.90;99.90
27226;DHT22;14732;51.074;3.788;2022-08-19T10:57:12;26.10;99.90
27226;DHT22;14732;51.074;3.788;2022-08-19T10:59:38;25.80;99.90
27226;DHT22;14732;51.074;3.788;2022-08-19T11:02:07;25.80;99.90
27226;DHT22;14732;51.074;3.788;2022-08-19T11:04:36;25.70;99.90
27226;DHT22;14732;51.074;3.788;2022-08-19T11:07:03;25.80;99.90
27226;DHT22;14732;51.074;3.788;2022-08-19T11:09:30;25.80;99.90
27226;DHT22;14732;51.074;3.788;2022-08-19T11:11:56;25.90;99.90
27226;DHT22;14732;51.074;3.788;2022-08-19T11:14:22;25.80;99.90
27226;DHT22;14732;51.074;3.788;2022-08-19T11:16:49;25.90;99.90
27226;DHT22;14732;51.074;3.788;2022-08-19T11:19:16;25.80;99.90
27226;DHT22;14732;51.074;3.788;2022-08-19T11:21:47;25.80;99.90
27226;DHT22;14732;51.074;3.788;2022-08-19T11:24:16;25.70;99.90
27226;DHT22;14732;51.074;3.788;2022-08-19T11:26:43;25.80;99.90
27226;DHT22;14732;51.074;3.788;2022-08-19T11:29:10;25.80;99.90
27226;DHT22;14732;51.074;3.788;2022-08-19T11:31:42;25.70;99.90
27226;DHT22;14732;51.074;3.788;2022-08-19T11:34:11;25.60;99.90
27226;DHT22;14732;51.074;3.788;2022-08-19T11:36:39;25.30;99.90
27226;DHT22;14732;51.074;3.788;2022-08-19T11:39:06;25.20;99.90
27226;DHT22;14732;51.074;3.788;2022-08-19T11:41:33;25.10;99.90
27226;DHT22;14732;51.074;3.788;2022-08-19T11:44:00;25.20;99.90
27226;DHT22;14732;51.074;3.788;2022-08-19T11:46:27;25.30;99.90
27226;DHT22;14732;51.074;3.788;2022-08-19T11:48:56;25.30;99.90
27226;DHT22;14732;51.074;3.788;2022-08-19T11:51:24;25.40;99.90
27226;DHT22;14732;51.074;3.788;2022-08-19T11:53:57;25.60;99.90
27226;DHT22;14732;51.074;3.788;2022-08-19T11:56:24;25.60;99.90
27226;DHT22;14732;51.074;3.788;2022-08-19T11:58:50;25.80;99.90
27226;DHT22;14732;51.074;3.788;2022-08-19T12:01:19;25.80;99.90
27226;DHT22;14732;51.074;3.788;2022-08-19T12:03:47;26.00;99.90
27226;DHT22;14732;51.074;3.788;2022-08-19T12:06:16;26.20;99.90
27226;DHT22;14732;51.074;3.788;2022-08-19T12:08:42;26.10;99.90
27226;DHT22;14732;51.074;3.788;2022-08-19T12:11:09;26.10;99.90
27226;DHT22;14732;51.074;3.788;2022-08-19T12:13:36;26.00;99.90
27226;DHT22;14732;51.074;3.788;2022-08-19T12:16:15;26.10;99.90
27226;DHT22;14732;51.074;3.788;2022-08-19T12:18:43;26.20;99.90
27226;DHT22;14732;51.074;3.788;2022-08-19T12:21:17;26.50;99.90
27226;DHT22;14732;51.074;3.788;2022-08-19T12:23:47;26.60;99.90
27226;DHT22;14732;51.074;3.788;2022-08-19T12:26:14;26.70;99.90
27226;DHT22;14732;51.074;3.788;2022-08-19T12:28:40;26.90;99.90
27226;DHT22;14732;51.074;3.788;2022-08-19T12:31:06;27.20;99.90
27226;DHT22;14732;51.074;3.788;2022-08-19T12:33:32;27.50;99.90
27226;DHT22;14732;51.074;3.788;2022-08-19T12:36:03;27.60;99.90
27226;DHT22;14732;51.074;3.788;2022-08-19T12:38:29;27.60;99.90
27226;DHT22;14732;51.074;3.788;2022-08-19T12:40:55;27.40;99.90
27226;DHT22;14732;51.074;3.788;2022-08-19T12:43:21;27.20;99.90
27226;DHT22;14732;51.074;3.788;2022-08-19T12:45:47;27.30;99.90
27226;DHT22;14732;51.074;3.788;2022-08-19T12:48:13;27.40;99.90
27226;DHT22;14732;51.074;3.788;2022-08-19T12:50:44;27.30;99.90
27226;DHT22;14732;51.074;3.788;2022-08-19T12:53:11;27.30;99.90
27226;DHT22;14732;51.074;3.788;2022-08-19T12:55:37;27.00;99.90
27226;DHT22;14732;51.074;3.788;2022-08-19T12:58:03;26.90;99.90
27226;DHT22;14732;51.074;3.788;2022-08-19T13:00:29;27.00;99.90
27226;DHT22;14732;51.074;3.788;2022-08-19T13:02:56;26.90;99.90
27226;DHT22;14732;51.074;3.788;2022-08-19T13:05:27;26.80;99.90
27226;DHT22;14732;51.074;3.788;2022-08-19T13:07:55;27.00;99.90
27226;DHT22;14732;51.074;3.788;2022-08-19T13:10:27;27.10;99.90
27226;DHT22;14732;51.074;3.788;2022-08-19T13:12:53;27.20;99.90
27226;DHT22;14732;51.074;3.788;2022-08-19T13:15:21;27.40;99.90
27226;DHT22;14732;51.074;3.788;2022-08-19T13:17:49;27.50;99.90
27226;DHT22;14732;51.074;3.788;2022-08-19T13:20:17;27.50;99.90
27226;DHT22;14732;51.074;3.788;2022-08-19T13:22:44;27.40;99.90
27226;DHT22;14732;51.074;3.788;2022-08-19T13:25:11;27.50;99.90
27226;DHT22;14732;51.074;3.788;2022-08-19T13:27:37;27.60;99.90
27226;DHT22;14732;51.074;3.788;2022-08-19T13:30:04;27.50;99.90
27226;DHT22;14732;51.074;3.788;2022-08-19T13:32:48;27.20;99.90
27226;DHT22;14732;51.074;3.788;2022-08-19T13:35:32;26.70;99.90
27226;DHT22;14732;51.074;3.788;2022-08-19T13:37:58;25.80;99.90
27226;DHT22;14732;51.074;3.788;2022-08-19T13:40:24;25.40;99.90
27226;DHT22;14732;51.074;3.788;2022-08-19T13:42:53;25.20;99.90
27226;DHT22;14732;51.074;3.788;2022-08-19T13:45:21;24.90;99.90
27226;DHT22;14732;51.074;3.788;2022-08-19T13:47:49;25.00;99.90
27226;DHT22;14732;51.074;3.788;2022-08-19T13:50:18;25.00;99.90
27226;DHT22;14732;51.074;3.788;2022-08-19T13:52:45;25.10;99.90
27226;DHT22;14732;51.074;3.788;2022-08-19T13:55:11;25.30;99.90
27226;DHT22;14732;51.074;3.788;2022-08-19T13:57:37;25.40;99.90
27226;DHT22;14732;51.074;3.788;2022-08-19T14:00:13;25.50;99.90
27226;DHT22;14732;51.074;3.788;2022-08-19T14:02:39;25.50;99.90
27226;DHT22;14732;51.074;3.788;2022-08-19T14:05:07;25.50;99.90
27226;DHT22;14732;51.074;3.788;2022-08-19T14:07:34;25.60;99.90
27226;DHT22;14732;51.074;3.788;2022-08-19T14:10:00;25.60;99.90
27226;DHT22;14732;51.074;3.788;2022-08-19T14:12:25;25.60;99.90
27226;DHT22;14732;51.074;3.788;2022-08-19T14:14:51;25.70;99.90
27226;DHT22;14732;51.074;3.788;2022-08-19T14:17:17;25.90;99.90
27226;DHT22;14732;51.074;3.788;2022-08-19T14:19:43;26.20;99.90
27226;DHT22;14732;51.074;3.788;2022-08-19T14:22:09;26.20;99.90
27226;DHT22;14732;51.074;3.788;2022-08-19T14:24:37;26.10;99.90
27226;DHT22;14732;51.074;3.788;2022-08-19T14:27:03;26.20;99.90
27226;DHT22;14732;51.074;3.788;2022-08-19T14:29:29;26.30;99.90
27226;DHT22;14732;51.074;3.788;2022-08-19T14:31:55;26.40;99.90
27226;DHT22;14732;51.074;3.788;2022-08-19T14:34:24;26.50;99.90
27226;DHT22;14732;51.074;3.788;2022-08-19T14:36:50;26.30;99.90
27226;DHT22;14732;51.074;3.788;2022-08-19T14:39:16;26.30;99.90
27226;DHT22;14732;51.074;3.788;2022-08-19T14:41:41;26.30;99.90
27226;DHT22;14732;51.074;3.788;2022-08-19T14:44:08;26.30;99.90
27226;DHT22;14732;51.074;3.788;2022-08-19T14:46:38;26.20;99.90
27226;DHT22;14732;51.074;3.788;2022-08-19T14:49:04;26.20;99.90
27226;DHT22;14732;51.074;3.788;2022-08-19T14:51:30;26.20;99.90
27226;DHT22;14732;51.074;3.788;2022-08-19T14:53:56;26.50;99.90
27226;DHT22;14732;51.074;3.788;2022-08-19T14:56:25;26.60;99.90
27226;DHT22;14732;51.074;3.788;2022-08-19T14:58:51;26.60;99.90
27226;DHT22;14732;51.074;3.788;2022-08-19T15:01:18;26.60;99.90
27226;DHT22;14732;51.074;3.788;2022-08-19T15:03:46;26.40;99.90
27226;DHT22;14732;51.074;3.788;2022-08-19T15:06:12;26.30;99.90
27226;DHT22;14732;51.074;3.788;2022-08-19T15:08:39;26.20;99.90
27226;DHT22;14732;51.074;3.788;2022-08-19T15:11:10;26.10;99.90
27226;DHT22;14732;51.074;3.788;2022-08-19T15:13:36;26.00;99.90
27226;DHT22;14732;51.074;3.788;2022-08-19T15:16:03;26.10;99.90
27226;DHT22;14732;51.074;3.788;2022-08-19T15:18:28;26.20;99.90
27226;DHT22;14732;51.074;3.788;2022-08-19T15:20:54;26.00;99.90
27226;DHT22;14732;51.074;3.788;2022-08-19T15:23:20;26.20;99.90
27226;DHT22;14732;51.074;3.788;2022-08-19T15:25:46;26.20;99.90
27226;DHT22;14732;51.074;3.788;2022-08-19T15:28:12;26.20;99.90
27226;DHT22;14732;51.074;3.788;2022-08-19T15:30:39;26.20;99.90
27226;DHT22;14732;51.074;3.788;2022-08-19T15:33:06;26.20;99.90
27226;DHT22;14732;51.074;3.788;2022-08-19T15:35:32;26.50;99.90
27226;DHT22;14732;51.074;3.788;2022-08-19T15:37:58;26.60;99.90
27226;DHT22;14732;51.074;3.788;2022-08-19T15:40:25;26.70;99.90
27226;DHT22;14732;51.074;3.788;2022-08-19T15:42:52;26.80;99.90
27226;DHT22;14732;51.074;3.788;2022-08-19T15:45:19;26.90;99.90
27226;DHT22;14732;51.074;3.788;2022-08-19T15:47:46;27.00;99.90